Flight Track Log - Related Links

Times and Time Zones

All times are in EDT time to prevent confusion due to time zone crossing. See the PDT4236 flight status page for this flight to view local times or setup timezone preferences in your user account.


Time Position Orientation Groundspeed Altitude Reporting Facility
EDT Latitude Longitude Course Direction KTS MPH feet Rate Location/Type
Wed 04:28:00 PM 38.2057 -82.5127 174° South  Level FlightAware Approximate
Wed 04:28:05 PM 38.3389 -82.6275 177° South 170 196 4,900  Level Indianapolis Center
Wed 04:29:00 PM 38.1516 -82.5050 174° South  Level FlightAware Approximate
Wed 04:29:07 PM 38.2953 -82.6111 164° South 165 190 6,400  Level Indianapolis Center
Wed 04:30:00 PM 38.0977 -82.4946 167° South  Level FlightAware Approximate
Wed 04:30:09 PM 38.2411 -82.6028 173° South 167 192 8,300  Level Indianapolis Center
Wed 04:31:00 PM 38.0445 -82.4794 167° South  Level FlightAware Approximate
Wed 04:31:12 PM 38.1917 -82.5892 168° South 179 206 9,800  Level Indianapolis Center
Wed 04:32:00 PM 37.9807 -82.4661 171° South  Level FlightAware Approximate
Wed 04:32:14 PM 38.1422 -82.5764 169° South 180 207 11,300  Level Indianapolis Center
Wed 04:33:16 PM 38.0914 -82.5633 169° South 184 212 12,700 1,210 Climbing Indianapolis Center
Wed 04:34:18 PM 38.0356 -82.5489 168° South 201 231 13,800 1,065 Climbing Indianapolis Center
Wed 04:35:20 PM 37.9778 -82.5325 167° South 211 243 14,900 1,113 Climbing Indianapolis Center
Wed 04:36:22 PM 37.9106 -82.5144 168° South 211 243 16,100 968 Climbing Indianapolis Center
Wed 04:37:24 PM 37.8519 -82.5000 169° South 214 246 16,900 435 Climbing Indianapolis Center
Wed 04:38:26 PM 37.7872 -82.4822 168° South 235 270 17,000 48 Climbing Indianapolis Center
Wed 04:39:28 PM 37.7156 -82.4636 168° South 258 297 17,000  Level Indianapolis Center
Wed 04:40:30 PM 37.6442 -82.4433 167° South 261 300 17,000  Level Indianapolis Center
Wed 04:41:32 PM 37.5597 -82.4228 169° South 264 304 17,000  Level Indianapolis Center
Wed 04:42:34 PM 37.4875 -82.4042 168° South 264 304 17,000  Level Indianapolis Center
Wed 04:43:36 PM 37.4142 -82.3847 168° South 266 306 17,000  Level Indianapolis Center
Wed 04:44:38 PM 37.3414 -82.3658 168° South 264 304 17,000  Level Indianapolis Center
Wed 04:45:32 PM 37.2811 -82.3486 167° South 258 297 17,000 -53 Level Atlanta Center
Wed 04:46:32 PM 37.2078 -82.3344 171° South 258 297 16,900 -50 Descending Atlanta Center
Wed 04:47:32 PM 37.1389 -82.3125 166° South 258 297 16,900  Level Atlanta Center
Wed 04:48:32 PM 37.0678 -82.2958 169° South 258 297 16,900  Level Atlanta Center
Wed 04:49:32 PM 36.9986 -82.2767 168° South 258 297 16,900  Level Atlanta Center
Wed 04:50:32 PM 36.9275 -82.2575 168° South 258 297 16,900  Level Atlanta Center
Wed 04:51:32 PM 36.8583 -82.2383 167° South 258 297 16,900  Level Atlanta Center
Wed 04:52:32 PM 36.7872 -82.2217 169° South 258 297 16,900  Level Atlanta Center
Wed 04:53:32 PM 36.7097 -82.2003 168° South 258 297 16,900 -650 Level Atlanta Center
Wed 04:54:32 PM 36.6344 -82.1839 170° South 258 297 15,600 -1,200 Descending Atlanta Center
Wed 04:55:32 PM 36.5633 -82.1647 168° South 258 297 14,500 -1,100 Descending Atlanta Center
Wed 04:56:32 PM 36.4900 -82.1458 168° South 258 297 13,400 -750 Descending Atlanta Center
Wed 04:57:32 PM 36.4167 -82.1219 165° South 268 308 13,000 -200 Descending Atlanta Center
Wed 04:58:32 PM 36.3492 -82.0744 150° Southeast 274 315 13,000  Level Atlanta Center
Wed 04:59:32 PM 36.2797 -82.0297 153° Southeast 280 322 13,000 -100 Level Atlanta Center
Wed 05:00:32 PM 36.2183 -81.9875 151° Southeast 280 322 12,800 -600 Descending Atlanta Center
Wed 05:01:32 PM 36.1425 -81.9381 152° Southeast 286 329 11,800 -900 Descending Atlanta Center
Wed 05:02:32 PM 36.0728 -81.8911 151° Southeast 286 329 11,000 -400 Descending Atlanta Center
Wed 05:03:32 PM 36.0053 -81.8492 153° Southeast 286 329 11,000 -450 Level Atlanta Center
Wed 05:04:32 PM 35.9378 -81.8050 152° Southeast 280 322 10,100 -900 Descending Atlanta Center
Wed 05:05:32 PM 35.8725 -81.7631 152° Southeast 275 316 9,200 -550 Descending Atlanta Center
Wed 05:06:32 PM 35.8089 -81.7214 152° Southeast 265 305 9,000 -107 Descending Atlanta Center
Wed 05:07:24 PM 35.7583 -81.6869 151° Southeast 244 281 9,000  Level Atlanta Center
Wed 05:08:25 PM 35.6928 -81.6481 154° Southeast 254 292 9,000  Level Atlanta Center
Wed 05:09:26 PM 35.6317 -81.6064 151° Southeast 260 299 9,000  Level Atlanta Center
Wed 05:10:32 PM 35.5697 -81.5342 137° Southeast 258 297 9,000 -333 Level Atlanta Center
Wed 05:11:32 PM 35.5283 -81.4511 121° Southeast 272 313 8,300 -850 Descending Atlanta Center
Wed 05:12:32 PM 35.5097 -81.3600 104° East 277 319 7,300 -650 Descending Atlanta Center
Wed 05:13:32 PM 35.4931 -81.2686 103° East 277 319 7,000 -150 Descending Atlanta Center
Wed 05:14:32 PM 35.4764 -81.1775 103° East 277 319 7,000 -720 Level Atlanta Center
Wed 05:15:37 PM 35.4592 -81.0761 102° East 277 319 5,500 -952 Descending Atlanta Center
Wed 05:16:38 PM 35.4283 -81.0083 119° Southeast 227 261 5,000 -492 Descending Atlanta Center
Wed 05:17:39 PM 35.3756 -80.9847 160° South 199 229 4,500 -492 Descending Atlanta Center

Login

Don't have an account? Register now (free) for customized features, flight alerts, and more!